createdAt,value
2018-11-13T00:00:14.562Z,6.17
2018-11-13T00:02:43.066Z,5.50
2018-11-13T00:05:11.755Z,5.63
2018-11-13T00:07:40.760Z,5.37
2018-11-13T00:10:10.057Z,5.30
2018-11-13T00:12:39.056Z,6.90
2018-11-13T00:15:07.575Z,5.90
2018-11-13T00:17:36.598Z,5.97
2018-11-13T00:20:06.100Z,5.23
2018-11-13T00:22:34.507Z,5.10
2018-11-13T00:25:02.882Z,9.33
2018-11-13T00:27:31.342Z,5.93
2018-11-13T00:29:59.677Z,6.67
2018-11-13T00:32:28.064Z,5.70
2018-11-13T00:34:56.496Z,6.83
2018-11-13T00:37:24.888Z,5.30
2018-11-13T00:39:53.427Z,5.00
2018-11-13T00:42:22.328Z,5.90
2018-11-13T00:44:50.738Z,5.40
2018-11-13T00:47:19.132Z,6.50
2018-11-13T00:49:47.528Z,5.33
2018-11-13T00:52:15.916Z,6.30
2018-11-13T00:54:44.414Z,5.70
2018-11-13T00:57:12.793Z,6.00
2018-11-13T00:59:41.193Z,6.17
2018-11-13T01:02:09.823Z,5.63
2018-11-13T01:04:38.472Z,5.40
2018-11-13T01:07:07.140Z,6.13
2018-11-13T01:09:35.529Z,6.17
2018-11-13T01:12:03.971Z,6.17
2018-11-13T01:14:32.374Z,7.73
2018-11-13T01:17:00.779Z,5.83
2018-11-13T01:19:29.189Z,7.17
2018-11-13T01:21:57.617Z,6.83
2018-11-13T01:24:26.066Z,5.87
2018-11-13T01:26:54.485Z,6.43
2018-11-13T01:29:22.853Z,7.20
2018-11-13T01:31:51.337Z,7.93
2018-11-13T01:34:19.854Z,5.63
2018-11-13T01:36:48.307Z,5.57
2018-11-13T01:39:16.706Z,5.93
2018-11-13T01:41:45.069Z,5.93
2018-11-13T01:44:13.417Z,6.67
2018-11-13T01:46:42.090Z,6.00
2018-11-13T01:49:10.488Z,7.47
2018-11-13T01:51:38.928Z,5.70
2018-11-13T01:54:07.358Z,7.27
2018-11-13T01:56:35.873Z,5.97
2018-11-13T01:59:04.309Z,6.63
2018-11-13T02:01:32.693Z,6.70
2018-11-13T02:04:01.061Z,7.30
2018-11-13T02:06:29.822Z,6.83
2018-11-13T02:08:58.237Z,5.87
2018-11-13T02:11:26.657Z,5.70
2018-11-13T02:13:55.053Z,7.47
2018-11-13T02:16:23.475Z,6.60
2018-11-13T02:18:51.893Z,6.60
2018-11-13T02:21:20.287Z,6.93
2018-11-13T02:23:48.693Z,6.83
2018-11-13T02:26:17.075Z,6.00
2018-11-13T02:28:45.461Z,6.30
2018-11-13T02:31:14.091Z,6.23
2018-11-13T02:33:42.505Z,6.53
2018-11-13T02:36:10.909Z,6.17
2018-11-13T02:38:39.235Z,6.13
2018-11-13T02:41:07.611Z,6.40
2018-11-13T02:43:35.991Z,6.33
2018-11-13T02:46:04.433Z,5.93
2018-11-13T02:48:32.816Z,8.97
2018-11-13T02:51:01.270Z,5.93
2018-11-13T02:53:29.634Z,5.80
2018-11-13T02:55:58.054Z,5.90
2018-11-13T02:58:26.592Z,8.20
2018-11-13T03:00:54.987Z,6.53
2018-11-13T03:03:23.350Z,7.10
2018-11-13T03:05:51.765Z,5.90
2018-11-13T03:08:20.164Z,6.23
2018-11-13T03:10:48.578Z,6.33
2018-11-13T03:13:17.083Z,6.00
2018-11-13T03:15:45.495Z,7.10
2018-11-13T03:18:13.866Z,5.87
2018-11-13T03:20:42.282Z,7.00
2018-11-13T03:23:10.688Z,6.10
2018-11-13T03:25:39.077Z,6.20
2018-11-13T03:28:07.781Z,6.33
2018-11-13T03:30:36.170Z,6.23
2018-11-13T03:33:04.656Z,6.30
2018-11-13T03:35:33.204Z,7.47
2018-11-13T03:38:01.575Z,6.70
2018-11-13T03:40:30.011Z,6.90
2018-11-13T03:42:58.409Z,5.93
2018-11-13T03:45:26.844Z,6.70
2018-11-13T03:47:55.266Z,6.10
2018-11-13T03:50:23.667Z,5.97
2018-11-13T03:52:52.078Z,6.53
2018-11-13T03:55:20.994Z,8.53
2018-11-13T03:57:50.215Z,7.03
2018-11-13T04:00:19.853Z,6.63
2018-11-13T04:02:48.262Z,6.37
2018-11-13T04:05:17.615Z,6.40
2018-11-13T04:07:50.379Z,5.53
2018-11-13T04:10:19.593Z,6.83
2018-11-13T04:12:48.112Z,6.50
2018-11-13T04:15:17.751Z,6.23
2018-11-13T04:17:46.239Z,6.83
2018-11-13T04:20:15.886Z,7.00
2018-11-13T04:22:44.564Z,6.67
2018-11-13T04:25:12.992Z,6.90
2018-11-13T04:27:41.475Z,6.20
2018-11-13T04:30:11.264Z,6.07
2018-11-13T04:32:40.115Z,5.90
2018-11-13T04:35:10.108Z,6.53
2018-11-13T04:37:38.507Z,6.17
2018-11-13T04:40:11.263Z,6.23
2018-11-13T04:42:40.030Z,6.40
2018-11-13T04:45:10.300Z,6.27
2018-11-13T04:47:38.700Z,6.03
2018-11-13T04:50:08.760Z,7.97
2018-11-13T04:52:37.168Z,7.53
2018-11-13T04:55:06.414Z,5.80
2018-11-13T04:57:34.962Z,5.93
2018-11-13T05:00:04.323Z,6.90
2018-11-13T05:02:32.833Z,5.93
2018-11-13T05:05:01.313Z,6.13
2018-11-13T05:07:29.780Z,6.70
2018-11-13T05:09:58.194Z,5.70
2018-11-13T05:12:26.515Z,6.50
2018-11-13T05:14:55.030Z,6.77
2018-11-13T05:17:23.399Z,6.90
2018-11-13T05:19:51.792Z,6.90
2018-11-13T05:22:20.186Z,6.40
2018-11-13T05:24:48.573Z,7.17
2018-11-13T05:27:16.981Z,9.50
2018-11-13T05:29:45.403Z,6.43
2018-11-13T05:32:13.821Z,6.77
2018-11-13T05:34:42.347Z,6.90
2018-11-13T05:37:10.703Z,6.17
2018-11-13T05:39:39.257Z,6.73
2018-11-13T05:42:07.683Z,6.23
2018-11-13T05:44:36.053Z,6.57
2018-11-13T05:47:04.990Z,6.70
2018-11-13T05:49:33.359Z,6.90
2018-11-13T05:52:01.754Z,6.43
2018-11-13T05:54:30.159Z,5.87
2018-11-13T05:56:58.795Z,6.27
2018-11-13T05:59:27.195Z,8.40
2018-11-13T06:01:55.615Z,6.83
2018-11-13T06:04:24.062Z,11.47
2018-11-13T06:06:52.420Z,7.03
2018-11-13T06:09:20.839Z,7.83
2018-11-13T06:11:49.191Z,7.17
2018-11-13T06:14:17.690Z,6.90
2018-11-13T06:16:46.084Z,6.90
2018-11-13T06:19:14.520Z,8.67
2018-11-13T06:21:42.930Z,9.30
2018-11-13T06:24:11.269Z,8.40
2018-11-13T06:26:39.692Z,11.30
2018-11-13T06:29:08.336Z,9.77
2018-11-13T06:31:36.883Z,8.77
2018-11-13T06:34:05.338Z,8.53
2018-11-13T06:36:33.822Z,8.40
2018-11-13T06:39:02.369Z,11.07
2018-11-13T06:41:30.796Z,9.77
2018-11-13T06:43:59.224Z,9.00
2018-11-13T06:46:27.596Z,8.70
2018-11-13T06:48:56.136Z,8.97
2018-11-13T06:51:24.492Z,7.27
2018-11-13T06:54:04.216Z,8.30
2018-11-13T06:56:32.612Z,9.23
2018-11-13T06:59:00.954Z,8.97
2018-11-13T07:01:29.463Z,9.13
2018-11-13T07:03:57.922Z,9.07
2018-11-13T07:06:26.436Z,10.30
2018-11-13T07:08:54.982Z,12.37
2018-11-13T07:11:23.506Z,8.50
2018-11-13T07:13:51.814Z,8.50
2018-11-13T07:16:20.192Z,9.17
2018-11-13T07:18:48.789Z,9.13
2018-11-13T07:21:17.436Z,13.77
2018-11-13T07:23:45.868Z,9.40
2018-11-13T07:26:14.271Z,8.20
2018-11-13T07:28:42.611Z,11.37
2018-11-13T07:31:11.018Z,9.90
2018-11-13T07:33:39.457Z,8.80
2018-11-13T07:36:07.856Z,8.03
2018-11-13T07:38:36.283Z,8.17
2018-11-13T07:41:04.779Z,7.73
2018-11-13T07:43:33.169Z,8.07
2018-11-13T07:46:01.651Z,7.83
2018-11-13T07:48:30.252Z,8.83
2018-11-13T07:50:58.753Z,8.83
2018-11-13T07:53:27.128Z,8.60
2018-11-13T07:55:55.585Z,8.77
2018-11-13T07:58:24.005Z,8.87
2018-11-13T08:00:52.443Z,7.97
2018-11-13T08:03:28.443Z,8.23
2018-11-13T08:05:56.803Z,8.23
2018-11-13T08:08:25.277Z,8.70
2018-11-13T08:10:53.768Z,9.20
2018-11-13T08:13:22.321Z,7.83
2018-11-13T08:15:50.697Z,8.37
2018-11-13T08:18:19.140Z,8.33
2018-11-13T08:20:47.558Z,9.80
2018-11-13T08:23:15.973Z,9.00
2018-11-13T08:25:44.425Z,8.67
2018-11-13T08:28:12.867Z,9.27
2018-11-13T08:30:41.283Z,8.20
2018-11-13T08:33:09.719Z,7.70
2018-11-13T08:35:38.153Z,8.47
2018-11-13T08:38:06.763Z,8.30
2018-11-13T08:40:35.147Z,7.57
2018-11-13T08:43:03.549Z,8.13
2018-11-13T08:45:31.957Z,8.17
2018-11-13T08:48:00.376Z,7.63
2018-11-13T08:50:28.852Z,8.83
2018-11-13T08:52:57.214Z,7.80
2018-11-13T08:55:25.648Z,8.17
2018-11-13T08:57:54.049Z,7.30
2018-11-13T09:00:22.500Z,7.57
2018-11-13T09:02:50.896Z,8.17
2018-11-13T09:05:19.308Z,7.87
2018-11-13T09:07:47.943Z,7.23
2018-11-13T09:10:17.810Z,7.10
2018-11-13T09:12:46.645Z,7.83
2018-11-13T09:15:16.468Z,6.63
2018-11-13T09:17:44.864Z,6.73
2018-11-13T09:20:14.312Z,7.23
2018-11-13T09:22:42.761Z,6.47
2018-11-13T09:25:14.998Z,7.30
2018-11-13T09:27:43.476Z,6.90
2018-11-13T09:30:14.075Z,6.73
2018-11-13T09:32:42.931Z,8.37
2018-11-13T09:35:12.628Z,7.47
2018-11-13T09:37:41.397Z,11.20
2018-11-13T09:40:14.648Z,7.47
2018-11-13T09:42:43.772Z,7.07
2018-11-13T09:45:12.973Z,8.53
2018-11-13T09:47:41.931Z,7.30
2018-11-13T09:50:12.182Z,7.97
2018-11-13T09:52:41.414Z,8.50
2018-11-13T09:55:11.186Z,7.63
2018-11-13T09:57:39.566Z,8.33
2018-11-13T10:00:17.076Z,8.23
2018-11-13T10:02:47.326Z,8.47
2018-11-13T10:05:16.336Z,7.70
2018-11-13T10:07:45.060Z,10.80
2018-11-13T10:10:13.575Z,7.83
2018-11-13T10:12:42.006Z,7.73
2018-11-13T10:15:13.837Z,7.63
2018-11-13T10:17:42.361Z,6.83
2018-11-13T10:20:12.280Z,7.50
2018-11-13T10:22:41.499Z,6.97
2018-11-13T10:25:10.699Z,7.17
2018-11-13T10:27:39.406Z,6.83
2018-11-13T10:30:12.417Z,7.53
2018-11-13T10:32:41.375Z,8.63
2018-11-13T10:35:10.897Z,6.57
2018-11-13T10:37:40.084Z,6.30
2018-11-13T10:40:10.878Z,6.37
2018-11-13T10:42:39.916Z,6.67
2018-11-13T10:45:11.862Z,6.17
2018-11-13T10:47:40.544Z,6.57
2018-11-13T10:50:11.524Z,6.37
2018-11-13T10:52:40.322Z,6.57
2018-11-13T10:55:09.594Z,5.80
2018-11-13T10:57:38.782Z,6.40
2018-11-13T11:00:16.953Z,5.20
2018-11-13T11:02:50.785Z,3.13
2018-11-13T11:05:19.207Z,3.10
2018-11-13T11:07:48.028Z,2.40
2018-11-13T11:10:16.414Z,3.23
2018-11-13T11:12:44.834Z,3.67
2018-11-13T11:15:13.280Z,3.90
2018-11-13T11:17:41.825Z,4.77
2018-11-13T11:20:11.786Z,3.50
2018-11-13T11:22:40.372Z,2.90
2018-11-13T11:25:10.009Z,2.60
2018-11-13T11:27:38.473Z,2.47
2018-11-13T11:30:09.063Z,2.00
2018-11-13T11:32:37.470Z,1.67
2018-11-13T11:35:06.749Z,1.77
2018-11-13T11:37:35.632Z,1.70
2018-11-13T11:40:04.412Z,1.77
2018-11-13T11:42:32.854Z,1.50
2018-11-13T11:45:01.321Z,1.20
2018-11-13T11:47:30.440Z,1.57
2018-11-13T11:49:58.824Z,0.77
2018-11-13T11:52:27.320Z,0.60
2018-11-13T11:54:55.771Z,0.50
2018-11-13T11:57:24.314Z,0.60
2018-11-13T11:59:52.740Z,0.60
2018-11-13T12:02:21.231Z,1.30
2018-11-13T12:04:49.865Z,0.90
2018-11-13T12:07:18.292Z,1.03
2018-11-13T12:09:46.715Z,0.90
2018-11-13T12:12:15.175Z,2.20
2018-11-13T12:14:43.536Z,1.60
2018-11-13T12:17:12.007Z,1.90
2018-11-13T12:19:40.421Z,1.37
2018-11-13T12:22:08.862Z,1.90
2018-11-13T12:24:37.277Z,1.07
2018-11-13T12:27:05.868Z,0.90
2018-11-13T12:29:34.326Z,1.30
2018-11-13T12:32:02.781Z,0.93
2018-11-13T12:34:31.241Z,1.50
2018-11-13T12:36:59.649Z,0.90
2018-11-13T12:39:28.028Z,0.93
2018-11-13T12:41:56.467Z,1.63
2018-11-13T12:44:24.855Z,0.60
2018-11-13T12:46:53.274Z,0.63
2018-11-13T12:49:21.793Z,1.37
2018-11-13T12:51:55.467Z,0.80
2018-11-13T12:54:23.867Z,1.10
2018-11-13T12:56:52.300Z,3.27
2018-11-13T12:59:20.679Z,1.37
2018-11-13T13:01:49.061Z,0.80
2018-11-13T13:04:17.457Z,0.60
2018-11-13T13:06:45.861Z,0.57
2018-11-13T13:09:14.316Z,0.60
2018-11-13T13:11:42.685Z,0.67
2018-11-13T13:14:14.675Z,1.77
2018-11-13T13:16:43.091Z,0.70
2018-11-13T13:19:11.524Z,3.10
2018-11-13T13:21:40.000Z,0.70
2018-11-13T13:24:09.135Z,0.60
2018-11-13T13:26:37.931Z,0.60
2018-11-13T13:29:06.733Z,1.10
2018-11-13T13:31:35.133Z,2.03
2018-11-13T13:34:03.540Z,0.87
2018-11-13T13:36:31.939Z,1.83
2018-11-13T13:39:00.408Z,3.20
2018-11-13T13:41:28.797Z,2.03
2018-11-13T13:43:57.286Z,0.80
2018-11-13T13:46:25.763Z,1.03
2018-11-13T13:48:54.171Z,0.80
2018-11-13T13:51:22.628Z,0.70
2018-11-13T13:53:51.291Z,0.43
2018-11-13T13:56:19.630Z,2.20
2018-11-13T13:58:48.084Z,3.13
2018-11-13T14:01:16.516Z,0.70
2018-11-13T14:03:44.957Z,0.60
2018-11-13T14:06:13.477Z,3.30
2018-11-13T14:08:42.075Z,0.40
2018-11-13T14:11:10.440Z,0.80
2018-11-13T14:13:38.848Z,3.07
2018-11-13T14:16:07.626Z,1.57
2018-11-13T14:18:36.024Z,2.77
2018-11-13T14:21:04.556Z,0.97
2018-11-13T14:23:32.975Z,1.03
2018-11-13T14:26:01.359Z,2.37
2018-11-13T14:28:29.788Z,0.70
2018-11-13T14:30:58.334Z,0.47
2018-11-13T14:33:26.715Z,0.60
2018-11-13T14:35:55.174Z,1.13
2018-11-13T14:38:23.668Z,0.47
2018-11-13T14:40:52.173Z,0.73
2018-11-13T14:43:20.634Z,1.23
2018-11-13T14:45:49.072Z,0.40
2018-11-13T14:48:17.474Z,1.43
2018-11-13T14:50:45.905Z,4.53
2018-11-13T14:53:14.710Z,0.60
2018-11-13T14:55:44.517Z,0.87
2018-11-13T14:58:13.978Z,0.50
2018-11-13T15:00:42.760Z,0.30
2018-11-13T15:03:12.619Z,0.40
2018-11-13T15:05:41.128Z,1.00
2018-11-13T15:08:10.120Z,0.63
2018-11-13T15:10:42.367Z,0.50
2018-11-13T15:13:11.219Z,2.57
2018-11-13T15:15:39.637Z,1.30
2018-11-13T15:18:08.383Z,3.17
2018-11-13T15:20:36.946Z,0.97
2018-11-13T15:23:06.557Z,0.80
2018-11-13T15:25:35.048Z,0.67
2018-11-13T15:28:03.497Z,0.87
2018-11-13T15:30:33.209Z,2.20
2018-11-13T15:33:06.188Z,1.00
2018-11-13T15:35:34.582Z,0.90
2018-11-13T15:38:02.960Z,0.93
2018-11-13T15:40:31.702Z,1.23
2018-11-13T15:43:00.171Z,1.93
2018-11-13T15:45:28.607Z,1.60
2018-11-13T15:47:58.188Z,1.80
2018-11-13T15:50:27.984Z,1.17
2018-11-13T15:52:56.584Z,1.40
2018-11-13T15:55:25.073Z,1.23
2018-11-13T15:57:53.847Z,1.10
2018-11-13T16:00:26.319Z,0.50
2018-11-13T16:02:55.348Z,3.10
2018-11-13T16:05:32.860Z,1.33
2018-11-13T16:08:02.427Z,0.77
2018-11-13T16:10:30.954Z,1.47
2018-11-13T16:12:59.895Z,1.30
2018-11-13T16:15:28.809Z,0.70
2018-11-13T16:17:58.208Z,1.20
2018-11-13T16:20:26.836Z,2.47
2018-11-13T16:22:55.355Z,1.20
2018-11-13T16:25:24.099Z,0.90
2018-11-13T16:27:52.592Z,4.00
2018-11-13T16:30:25.373Z,3.07
2018-11-13T16:32:54.118Z,1.50
2018-11-13T16:35:23.490Z,1.37
2018-11-13T16:37:52.631Z,1.57
2018-11-13T16:40:23.005Z,1.03
2018-11-13T16:42:51.390Z,1.03
2018-11-13T16:45:21.079Z,1.87
2018-11-13T16:47:49.660Z,1.30
2018-11-13T16:50:21.935Z,1.27
2018-11-13T16:52:50.642Z,1.57
2018-11-13T16:55:24.435Z,1.23
2018-11-13T16:57:53.644Z,4.87
2018-11-13T17:00:22.685Z,3.70
2018-11-13T17:02:51.058Z,3.60
2018-11-13T17:05:20.449Z,1.30
2018-11-13T17:07:48.942Z,1.53
2018-11-13T17:10:23.446Z,1.10
2018-11-13T17:12:52.224Z,1.67
2018-11-13T17:15:22.735Z,2.20
2018-11-13T17:17:52.060Z,1.17
2018-11-13T17:20:21.255Z,1.93
2018-11-13T17:22:50.753Z,1.27
2018-11-13T17:25:23.513Z,2.40
2018-11-13T17:27:53.060Z,0.60
2018-11-13T17:30:23.775Z,1.17
2018-11-13T17:32:52.953Z,1.27
2018-11-13T17:35:22.639Z,2.00
2018-11-13T17:37:51.965Z,1.87
2018-11-13T17:40:22.821Z,2.63
2018-11-13T17:42:52.416Z,1.17
2018-11-13T17:45:22.344Z,3.00
2018-11-13T17:47:50.746Z,1.63
2018-11-13T17:50:25.132Z,1.07
2018-11-13T17:52:53.678Z,2.27
2018-11-13T17:55:22.602Z,1.23
2018-11-13T17:57:52.393Z,1.40
2018-11-13T18:00:27.187Z,0.60
2018-11-13T18:02:55.769Z,2.30
2018-11-13T18:05:25.269Z,1.73
2018-11-13T18:07:54.458Z,3.47
2018-11-13T18:10:23.123Z,5.40
2018-11-13T18:12:51.522Z,2.07
2018-11-13T18:15:20.949Z,1.43
2018-11-13T18:17:49.665Z,2.07
2018-11-13T18:20:19.377Z,4.47
2018-11-13T18:22:48.253Z,3.40
2018-11-13T18:25:16.717Z,3.63
2018-11-13T18:27:48.571Z,2.63
2018-11-13T18:30:20.259Z,3.67
2018-11-13T18:32:49.062Z,1.80
2018-11-13T18:35:18.855Z,2.40
2018-11-13T18:37:48.245Z,1.97
2018-11-13T18:40:17.791Z,2.37
2018-11-13T18:42:47.368Z,2.10
2018-11-13T18:45:19.988Z,3.17
2018-11-13T18:47:48.492Z,2.20
2018-11-13T18:50:21.402Z,2.43
2018-11-13T18:52:50.119Z,3.00
2018-11-13T18:55:19.030Z,2.83
2018-11-13T18:57:47.520Z,2.83
2018-11-13T19:00:19.439Z,2.60
2018-11-13T19:02:47.951Z,2.70
2018-11-13T19:05:17.092Z,4.67
2018-11-13T19:07:45.586Z,3.67
2018-11-13T19:10:16.661Z,3.90
2018-11-13T19:12:45.396Z,3.03
2018-11-13T19:15:14.888Z,4.10
2018-11-13T19:17:43.496Z,4.27
2018-11-13T19:20:15.628Z,4.57
2018-11-13T19:22:44.024Z,5.07
2018-11-13T19:25:16.551Z,5.00
2018-11-13T19:27:46.413Z,5.13
2018-11-13T19:30:16.053Z,6.23
2018-11-13T19:32:44.463Z,4.30
2018-11-13T19:35:13.502Z,3.00
2018-11-13T19:37:41.932Z,4.10
2018-11-13T19:40:13.360Z,2.63
2018-11-13T19:42:42.179Z,4.43
2018-11-13T19:45:10.800Z,3.00
2018-11-13T19:47:39.883Z,3.37
2018-11-13T19:50:11.232Z,3.97
2018-11-13T19:52:40.264Z,3.10
2018-11-13T19:55:09.826Z,5.53
2018-11-13T19:57:38.322Z,4.10
2018-11-13T20:00:09.573Z,3.07
2018-11-13T20:02:38.434Z,3.63
2018-11-13T20:05:08.103Z,3.00
2018-11-13T20:07:36.927Z,2.97
2018-11-13T20:10:08.872Z,3.17
2018-11-13T20:12:37.345Z,3.90
2018-11-13T20:15:05.961Z,4.47
2018-11-13T20:17:34.956Z,4.07
2018-11-13T20:20:04.663Z,5.57
2018-11-13T20:22:33.190Z,3.60
2018-11-13T20:25:01.648Z,3.57
2018-11-13T20:27:30.071Z,10.10
2018-11-13T20:29:59.856Z,3.93
2018-11-13T20:32:28.277Z,11.97
2018-11-13T20:34:56.735Z,2.70
2018-11-13T20:37:25.277Z,3.50
2018-11-13T20:39:53.737Z,4.13
2018-11-13T20:42:22.193Z,2.77
2018-11-13T20:44:50.730Z,2.83
2018-11-13T20:47:19.156Z,2.97
2018-11-13T20:49:47.621Z,3.30
2018-11-13T20:52:16.189Z,3.60
2018-11-13T20:54:44.668Z,3.17
2018-11-13T20:57:13.255Z,2.73
2018-11-13T20:59:41.699Z,13.27
2018-11-13T21:02:10.136Z,4.17
2018-11-13T21:04:38.625Z,3.10
2018-11-13T21:07:07.115Z,3.40
2018-11-13T21:09:35.574Z,4.10
2018-11-13T21:12:04.019Z,4.33
2018-11-13T21:14:32.549Z,3.23
2018-11-13T21:17:01.263Z,5.20
2018-11-13T21:19:29.691Z,2.47
2018-11-13T21:21:58.148Z,2.73
2018-11-13T21:24:26.839Z,3.40
2018-11-13T21:26:55.243Z,3.77
2018-11-13T21:29:23.746Z,4.10
2018-11-13T21:31:52.176Z,2.73
2018-11-13T21:34:20.596Z,4.97
2018-11-13T21:36:49.107Z,3.40
2018-11-13T21:39:17.557Z,3.67
2018-11-13T21:41:46.012Z,3.30
2018-11-13T21:44:14.500Z,3.97
2018-11-13T21:46:42.970Z,3.00
2018-11-13T21:49:11.372Z,3.90
2018-11-13T21:51:39.765Z,4.10
2018-11-13T21:54:08.202Z,3.90
2018-11-13T21:56:36.688Z,2.53
2018-11-13T21:59:05.323Z,3.50
2018-11-13T22:01:33.849Z,2.53
2018-11-13T22:04:02.306Z,4.67
2018-11-13T22:06:30.747Z,2.53
2018-11-13T22:08:59.422Z,4.53
2018-11-13T22:11:27.822Z,2.50
2018-11-13T22:13:56.224Z,2.53
2018-11-13T22:16:24.698Z,4.00
2018-11-13T22:18:53.101Z,5.17
2018-11-13T22:21:21.653Z,4.67
2018-11-13T22:23:49.946Z,4.73
2018-11-13T22:26:18.429Z,3.17
2018-11-13T22:28:46.989Z,3.67
2018-11-13T22:31:15.251Z,2.47
2018-11-13T22:33:43.419Z,5.23
2018-11-13T22:36:11.831Z,3.00
2018-11-13T22:38:41.369Z,5.63
2018-11-13T22:41:09.770Z,3.37
2018-11-13T22:43:38.148Z,5.30
2018-11-13T22:46:06.575Z,3.93
2018-11-13T22:48:35.010Z,5.30
2018-11-13T22:51:03.379Z,2.73
2018-11-13T22:53:35.380Z,4.57
2018-11-13T22:56:03.731Z,3.23
2018-11-13T22:58:32.107Z,3.63
2018-11-13T23:01:00.990Z,2.40
2018-11-13T23:03:29.283Z,3.50
2018-11-13T23:05:57.603Z,3.47
2018-11-13T23:08:25.981Z,3.20
2018-11-13T23:10:54.834Z,3.57
2018-11-13T23:13:23.289Z,5.83
2018-11-13T23:15:51.709Z,2.67
2018-11-13T23:18:20.121Z,4.37
2018-11-13T23:20:48.631Z,2.80
2018-11-13T23:23:16.949Z,4.33
2018-11-13T23:25:45.384Z,3.30
2018-11-13T23:28:14.532Z,4.43
2018-11-13T23:30:42.997Z,3.23
2018-11-13T23:33:11.355Z,7.97
2018-11-13T23:35:39.716Z,4.33
2018-11-13T23:38:08.076Z,3.80
2018-11-13T23:40:36.448Z,2.53
2018-11-13T23:43:05.230Z,2.33
2018-11-13T23:45:33.600Z,2.20
2018-11-13T23:48:02.376Z,5.40
2018-11-13T23:50:30.436Z,2.60
2018-11-13T23:52:58.854Z,2.93
2018-11-13T23:55:27.345Z,4.90
2018-11-13T23:57:56.048Z,3.47
